Map

Track Data

SID SEASON NUMBER BASIN SUBBASIN NAME ISO_TIME NATURE LAT LON WMO_WIND WMO_PRES WMO_AGENCY TRACK_TYPE DIST2LAND LANDFALL IFLAG USA_AGENCY USA_ATCF_ID USA_LAT USA_LON USA_RECORD USA_STATUS USA_WIND USA_PRES USA_SSHS USA_R34_NE USA_R34_SE USA_R34_SW USA_R34_NW USA_R50_NE USA_R50_SE USA_R50_SW USA_R50_NW USA_R64_NE USA_R64_SE USA_R64_SW USA_R64_NW USA_POCI USA_ROCI USA_RMW USA_EYE TOKYO_LAT TOKYO_LON TOKYO_GRADE TOKYO_WIND TOKYO_PRES TOKYO_R50_DIR TOKYO_R50_LONG TOKYO_R50_SHORT TOKYO_R30_DIR TOKYO_R30_LONG TOKYO_R30_SHORT TOKYO_LAND CMA_LAT CMA_LON CMA_CAT CMA_WIND CMA_PRES HKO_LAT HKO_LON HKO_CAT HKO_WIND HKO_PRES NEWDELHI_LAT NEWDELHI_LON NEWDELHI_GRADE NEWDELHI_WIND NEWDELHI_PRES NEWDELHI_CI NEWDELHI_DP NEWDELHI_POCI REUNION_LAT REUNION_LON REUNION_TYPE REUNION_WIND REUNION_PRES REUNION_TNUM REUNION_CI REUNION_RMW REUNION_R34_NE REUNION_R34_SE REUNION_R34_SW REUNION_R34_NW REUNION_R50_NE REUNION_R50_SE REUNION_R50_SW REUNION_R50_NW REUNION_R64_NE REUNION_R64_SE REUNION_R64_SW REUNION_R64_NW BOM_LAT BOM_LON BOM_TYPE BOM_WIND BOM_PRES BOM_TNUM BOM_CI BOM_RMW BOM_R34_NE BOM_R34_SE BOM_R34_SW BOM_R34_NW BOM_R50_NE BOM_R50_SE BOM_R50_SW BOM_R50_NW BOM_R64_NE BOM_R64_SE BOM_R64_SW BOM_R64_NW BOM_ROCI BOM_POCI BOM_EYE BOM_POS_METHOD BOM_PRES_METHOD NADI_LAT NADI_LON NADI_CAT NADI_WIND NADI_PRES WELLINGTON_LAT WELLINGTON_LON WELLINGTON_WIND WELLINGTON_PRES DS824_LAT DS824_LON DS824_STAGE DS824_WIND DS824_PRES TD9636_LAT TD9636_LON TD9636_STAGE TD9636_WIND TD9636_PRES TD9635_LAT TD9635_LON TD9635_WIND TD9635_PRES TD9635_ROCI NEUMANN_LAT NEUMANN_LON NEUMANN_CLASS NEUMANN_WIND NEUMANN_PRES MLC_LAT MLC_LON MLC_CLASS MLC_WIND MLC_PRES USA_GUST BOM_GUST BOM_GUST_PER REUNION_GUST REUNION_GUST_PER USA_SEAHGT USA_SEARAD_NE USA_SEARAD_SE USA_SEARAD_SW USA_SEARAD_NW STORM_SPEED STORM_DIR
1980240N17119 1980 67 WP MM NOT_NAMED 1980-08-26 18:00:00 TS 17.2000 119.000 main 131 131 __O___________ -1 17.2000 119.000 0 19 1001 16 240
1980240N17119 1980 67 WP MM NOT_NAMED 1980-08-26 21:00:00 TS 16.7908 118.257 main 169 169 __P___________ -1 16.7908 118.257 0 19 1001 16 239
1980240N17119 1980 67 WP MM NOT_NAMED 1980-08-27 00:00:00 TS 16.4000 117.600 main 228 228 __O___________ -1 16.4000 117.600 0 19 1001 14 236
1980240N17119 1980 67 WP MM NOT_NAMED 1980-08-27 03:00:00 TS 16.0421 117.078 main 278 278 __P___________ -1 16.0421 117.078 0 19 1000 12 234
1980240N17119 1980 67 WP MM NOT_NAMED 1980-08-27 06:00:00 TS 15.7000 116.600 main 333 333 __O___________ -1 15.7000 116.600 0 19 1000 12 233
1980240N17119 1980 67 WP MM NOT_NAMED 1980-08-27 09:00:00 TS 15.3049 116.065 main 393 393 __P___________ -1 15.3049 116.065 0 21 1000 13 237
1980240N17119 1980 67 WP MM NOT_NAMED 1980-08-27 12:00:00 TS 15.0000 115.500 main 463 463 __O___________ -1 15.0000 115.500 1 23 1000 12 249
1980240N17119 1980 67 WP MM NOT_NAMED 1980-08-27 15:00:00 TS 14.8898 114.923 main 529 529 __P___________ -1 14.8898 114.923 1 23 1000 12 265
1980240N17119 1980 67 WP MM NOT_NAMED 1980-08-27 18:00:00 TS 14.9000 114.300 main 550 468 __O___________ -1 14.9000 114.300 1 23 1000 14 275
1980240N17119 1980 67 WP MM NOT_NAMED 1980-08-27 21:00:00 TS 15.0106 113.495 main 468 406 __P___________ -1 15.0106 113.495 1 26 999 14 274
1980240N17119 1980 67 WP MM NOT_NAMED 1980-08-28 00:00:00 TS 15.0000 112.900 main 406 383 __O___________ -1 15.0000 112.900 1 29 998 9 230
1980240N17119 1980 67 WP MM NOT_NAMED 1980-08-28 03:00:00 TS 14.4519 112.798 main 383 380 __P___________ -1 14.4519 112.798 1 26 999 9 168
1980240N17119 1980 67 WP MM NOT_NAMED 1980-08-28 06:00:00 TS 14.1000 113.100 main 410 410 __O___________ -1 14.1000 113.100 1 23 1001 10 77
1980240N17119 1980 67 WP MM NOT_NAMED 1980-08-28 09:00:00 TS 14.6884 113.852 main 503 503 __P___________ -1 14.6884 113.852 1 23 1001 19 42
1980240N17119 1980 67 WP MM NOT_NAMED 1980-08-28 12:00:00 TS 15.5000 114.400 main 555 493 __O___________ -1 15.5000 114.400 1 23 1001 12 6
1980240N17119 1980 67 WP MM NOT_NAMED 1980-08-28 15:00:00 TS 15.8902 113.989 main 493 415 __P___________ -1 15.8902 113.989 1 23 1001 13 297
1980240N17119 1980 67 WP MM NOT_NAMED 1980-08-28 18:00:00 TS 16.1000 113.200 main 415 364 __O___________ -1 16.1000 113.200 1 23 1002 14 283
1980240N17119 1980 67 WP MM NOT_NAMED 1980-08-28 21:00:00 TS 16.1924 112.584 main 364 316 __P___________ -1 16.1924 112.584 1 23 1002 12 280
1980240N17119 1980 67 WP MM NOT_NAMED 1980-08-29 00:00:00 TS 16.3000 112.000 main 316 250 __O___________ -1 16.3000 112.000 1 23 1002 12 290
1980240N17119 1980 67 WP MM NOT_NAMED 1980-08-29 03:00:00 TS 16.5901 111.418 main 250 189 __P___________ -1 16.5901 111.418 1 21 1002 12 306
1980240N17119 1980 67 WP MM NOT_NAMED 1980-08-29 06:00:00 TS 17.0000 111.000 main 189 138 __O___________ -1 17.0000 111.000 0 19 1002 11 330
1980240N17119 1980 67 WP MM NOT_NAMED 1980-08-29 09:00:00 TS 17.4998 110.860 main 138 94 __P___________ -1 17.4998 110.860 0 19 1002 10 354
1980240N17119 1980 67 WP MM NOT_NAMED 1980-08-29 12:00:00 TS 18.0000 110.900 main 94 69 __O___________ -1 18.0000 110.900 0 19 1002 9 10
1980240N17119 1980 67 WP MM NOT_NAMED 1980-08-29 15:00:00 TS 18.4100 111.037 main 69 62 __P___________ -1 18.4100 111.037 0 19 1002 7 15
1980240N17119 1980 67 WP MM NOT_NAMED 1980-08-29 18:00:00 TS 18.7000 111.100 main 62 33 __O___________ -1 18.7000 111.100 0 19 1002 5 342
1980240N17119 1980 67 WP MM NOT_NAMED 1980-08-29 21:00:00 TS 18.8825 110.875 main 33 0 __P___________ -1 18.8825 110.875 0 19 1001 6 289
1980240N17119 1980 67 WP MM NOT_NAMED 1980-08-30 00:00:00 TS 18.9000 110.500 main 0 0 __O___________ -1 18.9000 110.500 0 19 1001 7 259
1980240N17119 1980 67 WP MM NOT_NAMED 1980-08-30 03:00:00 TS 18.7375 110.107 main 0 0 __P___________ -1 18.7375 110.107 0 19 1001 9 242
1980240N17119 1980 67 WP MM NOT_NAMED 1980-08-30 06:00:00 TS 18.5000 109.700 main 0 0 __O___________ -1 18.5000 109.700 0 19 1001 8 237
1980240N17119 1980 67 WP MM NOT_NAMED 1980-08-30 09:00:00 TS 18.2748 109.365 main 10 10 __P___________ -1 18.2748 109.365 0 19 1001 7 246
1980240N17119 1980 67 WP MM NOT_NAMED 1980-08-30 12:00:00 TS 18.2000 109.000 main 22 10 __O___________ -1 18.2000 109.000 0 19 1001 8 284
1980240N17119 1980 67 WP MM NOT_NAMED 1980-08-30 15:00:00 TS 18.4700 108.531 main 21 21 __P___________ -1 18.4700 108.531 0 19 1001 11 302
1980240N17119 1980 67 WP MM NOT_NAMED 1980-08-30 18:00:00 TS 18.8000 108.000 main 73 73 __O___________ -1 18.8000 108.000 0 19 1001 11 293
1980240N17119 1980 67 WP MM NOT_NAMED 1980-08-30 21:00:00 TS 18.8873 107.472 main 123 100 __P___________ -1 18.8873 107.472 0 19 1001 10 275
1980240N17119 1980 67 WP MM NOT_NAMED 1980-08-31 00:00:00 TS 18.9000 106.900 main 100 57 __O___________ -1 18.9000 106.900 0 19 1002 11 273
1980240N17119 1980 67 WP MM NOT_NAMED 1980-08-31 03:00:00 TS 18.9380 106.268 main 57 0 __P___________ -1 18.9380 106.268 0 19 1002 12 275
1980240N17119 1980 67 WP MM NOT_NAMED 1980-08-31 06:00:00 TS 19.0000 105.600 main 0 __O___________ -1 19.0000 105.600 0 19 1003 13 276

Digital Typhoon Data and Search

About IBTrACS Database

This database is a web-friendly format of International Best Track Archive for Climate Stewardship (IBTrACS), a global best track data archive curated by NOAA dating back to 1842.

Updated: 2021-11-26